createdAt,value
2019-01-09T00:01:00.561Z,83.68
2019-01-09T00:03:28.959Z,83.95
2019-01-09T00:05:57.410Z,84.38
2019-01-09T00:08:25.821Z,84.31
2019-01-09T00:10:54.198Z,84.24
2019-01-09T00:13:22.661Z,84.40
2019-01-09T00:15:51.729Z,84.21
2019-01-09T00:18:20.628Z,84.14
2019-01-09T00:20:49.516Z,84.13
2019-01-09T00:23:18.192Z,83.77
2019-01-09T00:25:47.066Z,83.23
2019-01-09T00:28:15.676Z,83.07
2019-01-09T00:30:44.435Z,82.91
2019-01-09T00:33:13.530Z,82.74
2019-01-09T00:35:42.209Z,82.70
2019-01-09T00:38:10.598Z,83.07
2019-01-09T00:40:39.053Z,83.05
2019-01-09T00:43:07.868Z,83.68
2019-01-09T00:45:37.405Z,84.20
2019-01-09T00:48:05.870Z,83.96
2019-01-09T00:50:34.541Z,83.94
2019-01-09T00:53:03.319Z,83.94
2019-01-09T00:55:32.122Z,84.31
2019-01-09T00:58:01.215Z,84.57
2019-01-09T01:00:29.979Z,84.36
2019-01-09T01:03:19.332Z,84.53
2019-01-09T01:06:21.763Z,84.46
2019-01-09T01:09:08.250Z,84.13
2019-01-09T01:11:51.326Z,84.39
2019-01-09T01:14:37.983Z,84.05
2019-01-09T01:17:25.857Z,84.49
2019-01-09T01:20:31.757Z,84.07
2019-01-09T01:23:38.052Z,84.33
2019-01-09T01:26:09.478Z,84.43
2019-01-09T01:28:50.172Z,84.15
2019-01-09T01:31:30.274Z,84.08
2019-01-09T01:34:04.955Z,83.97
2019-01-09T01:36:45.420Z,83.67
2019-01-09T01:39:19.751Z,83.73
2019-01-09T01:41:51.449Z,83.28
2019-01-09T01:44:25.666Z,83.33
2019-01-09T01:47:15.069Z,83.13
2019-01-09T01:49:55.636Z,82.65
2019-01-09T01:52:35.690Z,82.92
2019-01-09T01:55:13.283Z,82.12
2019-01-09T01:57:50.739Z,81.68
2019-01-09T02:00:36.602Z,81.51
2019-01-09T02:03:29.250Z,81.24
2019-01-09T02:06:04.281Z,81.60
2019-01-09T02:08:42.045Z,80.96
2019-01-09T02:11:31.620Z,80.77
2019-01-09T02:14:27.108Z,80.91
2019-01-09T02:17:16.707Z,80.70
2019-01-09T02:20:00.291Z,80.62
2019-01-09T02:22:46.472Z,80.48
2019-01-09T02:25:35.408Z,80.25
2019-01-09T02:28:12.915Z,80.56
2019-01-09T02:31:07.357Z,80.47
2019-01-09T02:33:35.985Z,81.05
2019-01-09T02:36:13.340Z,81.11
2019-01-09T02:38:36.320Z,81.85
2019-01-09T02:41:05.001Z,82.32
2019-01-09T02:43:33.437Z,82.15
2019-01-09T02:46:01.834Z,81.59
2019-01-09T02:48:30.228Z,81.63
2019-01-09T02:50:58.624Z,82.07
2019-01-09T02:53:27.408Z,82.52
2019-01-09T02:55:55.801Z,82.64
2019-01-09T02:58:24.575Z,82.02
2019-01-09T03:00:53.667Z,81.87
2019-01-09T03:03:22.768Z,81.64
2019-01-09T03:05:51.441Z,81.22
2019-01-09T03:08:19.823Z,81.61
2019-01-09T03:10:48.404Z,81.56
2019-01-09T03:13:16.787Z,81.69
2019-01-09T03:15:45.180Z,81.81
2019-01-09T03:18:13.844Z,82.46
2019-01-09T03:20:42.546Z,82.58
2019-01-09T03:23:10.943Z,82.71
2019-01-09T03:25:39.692Z,83.10
2019-01-09T03:28:08.071Z,83.49
2019-01-09T03:30:36.468Z,83.23
2019-01-09T03:33:05.579Z,83.31
2019-01-09T03:35:33.952Z,83.42
2019-01-09T03:38:02.552Z,83.47
2019-01-09T03:40:31.211Z,83.34
2019-01-09T03:42:59.712Z,83.10
2019-01-09T03:45:28.081Z,83.28
2019-01-09T03:47:56.471Z,83.45
2019-01-09T03:50:25.138Z,83.52
2019-01-09T03:52:53.535Z,83.31
2019-01-09T03:55:21.935Z,83.12
2019-01-09T03:57:50.330Z,82.96
2019-01-09T04:00:19.065Z,82.71
2019-01-09T04:02:47.494Z,83.01
2019-01-09T04:05:16.440Z,83.19
2019-01-09T04:07:45.124Z,83.37
2019-01-09T04:10:13.830Z,83.25
2019-01-09T04:12:42.542Z,82.83
2019-01-09T04:15:11.227Z,82.17
2019-01-09T04:17:39.783Z,81.78
2019-01-09T04:20:08.585Z,82.04
2019-01-09T04:22:37.224Z,81.85
2019-01-09T04:25:05.922Z,81.89
2019-01-09T04:27:34.315Z,82.13
2019-01-09T04:30:03.313Z,82.14
2019-01-09T04:32:31.698Z,82.15
2019-01-09T04:35:00.474Z,82.22
2019-01-09T04:37:28.874Z,82.50
2019-01-09T04:39:57.334Z,82.12
2019-01-09T04:42:26.117Z,82.79
2019-01-09T04:44:54.515Z,82.74
2019-01-09T04:47:22.896Z,82.74
2019-01-09T04:49:51.297Z,82.93
2019-01-09T04:52:20.040Z,82.64
2019-01-09T04:54:48.434Z,83.46
2019-01-09T04:57:17.210Z,83.87
2019-01-09T04:59:46.100Z,84.12
2019-01-09T05:02:14.479Z,84.34
2019-01-09T05:04:42.884Z,84.52
2019-01-09T05:07:11.264Z,84.76
2019-01-09T05:09:40.236Z,84.52
2019-01-09T05:12:08.945Z,84.36
2019-01-09T05:14:37.603Z,84.22
2019-01-09T05:17:06.288Z,84.06
2019-01-09T05:19:34.892Z,84.17
2019-01-09T05:22:03.276Z,84.13
2019-01-09T05:24:31.922Z,83.91
2019-01-09T05:27:00.829Z,83.87
2019-01-09T05:29:29.516Z,83.77
2019-01-09T05:31:58.200Z,83.38
2019-01-09T05:34:26.843Z,83.28
2019-01-09T05:36:55.230Z,83.40
2019-01-09T05:39:24.064Z,83.78
2019-01-09T05:41:52.743Z,84.04
2019-01-09T05:44:21.427Z,84.08
2019-01-09T05:46:50.105Z,83.92
2019-01-09T05:49:18.520Z,83.88
2019-01-09T05:51:47.099Z,83.95
2019-01-09T05:54:15.486Z,84.24
2019-01-09T05:56:43.961Z,84.27
2019-01-09T05:59:12.728Z,84.26
2019-01-09T06:01:41.124Z,84.29
2019-01-09T06:04:09.527Z,84.29
2019-01-09T06:06:37.908Z,84.13
2019-01-09T06:09:07.328Z,83.99
2019-01-09T06:11:35.729Z,84.13
2019-01-09T06:14:04.118Z,84.23
2019-01-09T06:16:32.504Z,82.93
2019-01-09T06:19:01.186Z,81.62
2019-01-09T06:21:29.864Z,82.16
2019-01-09T06:23:58.261Z,82.94
2019-01-09T06:26:26.828Z,83.59
2019-01-09T06:28:55.524Z,84.68
2019-01-09T06:31:24.209Z,85.70
2019-01-09T06:33:53.104Z,86.04
2019-01-09T06:36:21.500Z,86.40
2019-01-09T06:38:49.897Z,86.37
2019-01-09T06:41:18.305Z,86.15
2019-01-09T06:43:47.028Z,85.92
2019-01-09T06:46:15.410Z,85.87
2019-01-09T06:48:43.890Z,85.98
2019-01-09T06:51:12.411Z,86.05
2019-01-09T06:53:41.264Z,86.52
2019-01-09T06:56:09.656Z,86.92
2019-01-09T06:58:38.329Z,87.00
2019-01-09T07:01:06.742Z,87.02
2019-01-09T07:03:35.113Z,86.73
2019-01-09T07:06:03.512Z,86.46
2019-01-09T07:08:32.022Z,85.63
2019-01-09T07:11:01.363Z,85.58
2019-01-09T07:13:29.745Z,85.70
2019-01-09T07:15:58.130Z,85.75
2019-01-09T07:18:27.202Z,85.96
2019-01-09T07:20:55.883Z,86.13
2019-01-09T07:23:25.626Z,86.05
2019-01-09T07:25:54.270Z,86.00
2019-01-09T07:28:23.373Z,85.94
2019-01-09T07:30:52.954Z,85.99
2019-01-09T07:33:21.349Z,85.92
2019-01-09T07:35:50.058Z,85.81
2019-01-09T07:38:18.476Z,85.79
2019-01-09T07:40:46.860Z,85.66
2019-01-09T07:43:15.263Z,85.55
2019-01-09T07:45:43.648Z,85.56
2019-01-09T07:48:12.052Z,85.74
2019-01-09T07:50:40.433Z,85.63
2019-01-09T07:53:09.206Z,85.67
2019-01-09T07:55:37.549Z,85.56
2019-01-09T07:58:06.204Z,85.50
2019-01-09T08:00:35.273Z,85.53
2019-01-09T08:03:03.949Z,85.53
2019-01-09T08:05:32.329Z,85.58
2019-01-09T08:08:01.355Z,85.68
2019-01-09T08:10:30.023Z,85.80
2019-01-09T08:12:58.704Z,85.66
2019-01-09T08:15:27.123Z,85.82
2019-01-09T08:17:55.518Z,85.87
2019-01-09T08:20:23.916Z,85.76
2019-01-09T08:22:52.629Z,85.42
2019-01-09T08:25:21.292Z,85.27
2019-01-09T08:27:50.413Z,85.09
2019-01-09T08:30:19.004Z,84.88
2019-01-09T08:32:47.691Z,84.57
2019-01-09T08:35:16.095Z,84.51
2019-01-09T08:37:44.754Z,84.44
2019-01-09T08:40:16.105Z,84.52
2019-01-09T08:42:44.887Z,84.70
2019-01-09T08:45:13.672Z,84.90
2019-01-09T08:47:42.365Z,85.00
2019-01-09T08:50:10.828Z,84.81
2019-01-09T08:52:39.676Z,85.09
2019-01-09T08:55:09.762Z,85.00
2019-01-09T08:57:38.540Z,84.73
2019-01-09T09:00:09.832Z,84.86
2019-01-09T09:02:38.228Z,84.90
2019-01-09T09:05:07.872Z,84.79
2019-01-09T09:07:39.465Z,84.74
2019-01-09T09:10:10.746Z,84.72
2019-01-09T09:12:39.131Z,84.76
2019-01-09T09:15:11.157Z,84.76
2019-01-09T09:17:39.904Z,84.74
2019-01-09T09:20:11.195Z,84.55
2019-01-09T09:22:39.587Z,84.17
2019-01-09T09:25:09.430Z,84.28
2019-01-09T09:27:37.820Z,83.89
2019-01-09T09:30:14.767Z,83.76
2019-01-09T09:32:43.149Z,83.86
2019-01-09T09:35:12.178Z,83.63
2019-01-09T09:37:40.840Z,83.49
2019-01-09T09:40:15.319Z,83.28
2019-01-09T09:42:43.968Z,82.64
2019-01-09T09:45:13.472Z,82.49
2019-01-09T09:47:42.365Z,82.24
2019-01-09T09:50:14.538Z,81.98
2019-01-09T09:52:42.922Z,81.59
2019-01-09T09:55:13.082Z,81.36
2019-01-09T09:57:41.600Z,81.71
2019-01-09T10:00:13.374Z,81.12
2019-01-09T10:02:42.035Z,81.35
2019-01-09T10:05:10.743Z,81.54
2019-01-09T10:07:39.143Z,81.68
2019-01-09T10:10:13.034Z,81.36
2019-01-09T10:12:42.131Z,80.88
2019-01-09T10:15:13.572Z,80.67
2019-01-09T10:17:41.981Z,79.80
2019-01-09T10:20:13.690Z,79.72
2019-01-09T10:22:42.107Z,79.15
2019-01-09T10:25:10.572Z,78.50
2019-01-09T10:27:39.071Z,78.31
2019-01-09T10:30:13.136Z,78.55
2019-01-09T10:32:41.527Z,78.51
2019-01-09T10:35:10.123Z,78.77
2019-01-09T10:37:38.521Z,78.78
2019-01-09T10:40:15.429Z,78.77
2019-01-09T10:42:43.888Z,78.69
2019-01-09T10:45:16.525Z,77.18
2019-01-09T10:47:45.115Z,77.41
2019-01-09T10:50:15.658Z,77.36
2019-01-09T10:52:44.234Z,77.74
2019-01-09T10:55:16.191Z,77.91
2019-01-09T10:57:45.069Z,78.16
2019-01-09T11:00:19.628Z,77.59
2019-01-09T11:02:48.089Z,77.94
2019-01-09T11:05:17.270Z,77.96
2019-01-09T11:07:46.078Z,77.75
2019-01-09T11:10:17.205Z,77.51
2019-01-09T11:12:45.594Z,77.13
2019-01-09T11:15:15.163Z,75.77
2019-01-09T11:17:43.548Z,75.62
2019-01-09T11:20:15.313Z,74.34
2019-01-09T11:22:44.054Z,73.57
2019-01-09T11:25:20.421Z,72.50
2019-01-09T11:27:48.813Z,72.96
2019-01-09T11:30:18.865Z,72.97
2019-01-09T11:32:47.261Z,72.28
2019-01-09T11:35:18.349Z,70.97
2019-01-09T11:37:46.976Z,70.92
2019-01-09T11:40:17.550Z,70.45
2019-01-09T11:42:46.243Z,69.19
2019-01-09T11:45:17.151Z,70.17
2019-01-09T11:47:45.641Z,70.93
2019-01-09T11:50:16.379Z,68.92
2019-01-09T11:52:44.769Z,68.61
2019-01-09T11:55:15.557Z,66.31
2019-01-09T11:57:43.948Z,68.14
2019-01-09T12:00:19.550Z,67.53
2019-01-09T12:02:49.138Z,67.39
2019-01-09T12:05:17.551Z,67.28
2019-01-09T12:07:46.820Z,67.25
2019-01-09T12:10:30.035Z,66.02
2019-01-09T12:12:54.284Z,65.65
2019-01-09T12:15:23.355Z,65.34
2019-01-09T12:17:51.829Z,65.23
2019-01-09T12:20:21.295Z,64.87
2019-01-09T12:22:50.520Z,65.61
2019-01-09T12:25:19.298Z,65.58
2019-01-09T12:27:47.984Z,64.12
2019-01-09T12:30:25.476Z,65.06
2019-01-09T12:32:54.975Z,64.84
2019-01-09T12:35:24.791Z,63.62
2019-01-09T12:37:54.622Z,63.93
2019-01-09T12:40:24.368Z,65.48
2019-01-09T12:42:53.455Z,64.31
2019-01-09T12:45:23.047Z,64.81
2019-01-09T12:47:51.423Z,64.39
2019-01-09T12:50:23.161Z,64.21
2019-01-09T12:52:52.753Z,63.67
2019-01-09T12:55:21.771Z,63.79
2019-01-09T12:57:50.154Z,62.80
2019-01-09T13:00:26.645Z,62.92
2019-01-09T13:02:55.398Z,60.14
2019-01-09T13:05:23.950Z,60.01
2019-01-09T13:07:52.579Z,58.52
2019-01-09T13:10:21.041Z,57.99
2019-01-09T13:12:49.501Z,57.99
2019-01-09T13:15:18.362Z,58.33
2019-01-09T13:17:46.960Z,56.94
2019-01-09T13:20:17.333Z,57.86
2019-01-09T13:22:46.726Z,58.47
2019-01-09T13:25:16.072Z,57.70
2019-01-09T13:27:45.060Z,57.98
2019-01-09T13:30:19.314Z,56.59
2019-01-09T13:32:47.820Z,56.62
2019-01-09T13:35:17.230Z,57.24
2019-01-09T13:37:46.129Z,58.34
2019-01-09T13:40:19.082Z,58.87
2019-01-09T13:42:48.103Z,59.77
2019-01-09T13:45:18.341Z,59.36
2019-01-09T13:47:49.898Z,59.05
2019-01-09T13:50:20.360Z,60.37
2019-01-09T13:52:48.835Z,59.12
2019-01-09T13:55:17.686Z,60.05
2019-01-09T13:57:47.716Z,59.47
2019-01-09T14:00:21.584Z,59.66
2019-01-09T14:02:53.716Z,59.43
2019-01-09T14:05:22.241Z,59.41
2019-01-09T14:07:50.849Z,59.19
2019-01-09T14:10:21.783Z,57.69
2019-01-09T14:12:50.159Z,58.11
2019-01-09T14:15:21.014Z,56.89
2019-01-09T14:17:50.367Z,56.31
2019-01-09T14:20:20.143Z,55.98
2019-01-09T14:22:48.982Z,56.60
2019-01-09T14:25:18.202Z,56.39
2019-01-09T14:27:46.584Z,56.93
2019-01-09T14:30:20.681Z,56.62
2019-01-09T14:32:49.724Z,55.22
2019-01-09T14:35:18.348Z,56.08
2019-01-09T14:37:46.850Z,56.33
2019-01-09T14:40:17.991Z,56.78
2019-01-09T14:42:46.435Z,57.82
2019-01-09T14:45:16.908Z,56.94
2019-01-09T14:47:45.884Z,57.79
2019-01-09T14:50:17.927Z,57.28
2019-01-09T14:52:46.738Z,57.16
2019-01-09T14:55:16.240Z,57.54
2019-01-09T14:57:45.467Z,58.05
2019-01-09T15:00:17.199Z,58.77
2019-01-09T15:02:45.984Z,58.08
2019-01-09T15:05:14.784Z,57.56
2019-01-09T15:07:43.121Z,58.23
2019-01-09T15:10:19.464Z,58.23
2019-01-09T15:12:48.452Z,58.57
2019-01-09T15:15:18.381Z,58.17
2019-01-09T15:17:47.324Z,58.66
2019-01-09T15:20:18.156Z,58.68
2019-01-09T15:22:46.953Z,57.88
2019-01-09T15:25:17.186Z,56.48
2019-01-09T15:27:45.960Z,56.64
2019-01-09T15:30:20.965Z,57.49
2019-01-09T15:32:50.243Z,57.33
2019-01-09T15:35:19.053Z,57.64
2019-01-09T15:37:47.437Z,57.89
2019-01-09T15:40:21.339Z,57.78
2019-01-09T15:42:53.097Z,58.11
2019-01-09T15:45:32.469Z,57.44
2019-01-09T15:48:00.910Z,58.02
2019-01-09T15:50:30.049Z,57.55
2019-01-09T15:52:58.842Z,58.45
2019-01-09T15:55:28.131Z,57.09
2019-01-09T15:57:56.676Z,56.51
2019-01-09T16:00:28.110Z,56.71
2019-01-09T16:02:57.243Z,56.28
2019-01-09T16:05:25.995Z,56.37
2019-01-09T16:07:54.373Z,56.73
2019-01-09T16:10:24.299Z,56.21
2019-01-09T16:12:52.865Z,57.49
2019-01-09T16:15:21.529Z,57.66
2019-01-09T16:17:50.200Z,57.97
2019-01-09T16:20:23.111Z,58.14
2019-01-09T16:22:51.837Z,58.79
2019-01-09T16:25:20.423Z,58.88
2019-01-09T16:27:48.973Z,59.36
2019-01-09T16:30:34.313Z,59.23
2019-01-09T16:32:59.550Z,59.45
2019-01-09T16:35:30.611Z,59.49
2019-01-09T16:38:06.076Z,59.56
2019-01-09T16:40:47.490Z,59.75
2019-01-09T16:43:16.147Z,59.65
2019-01-09T16:45:44.899Z,59.96
2019-01-09T16:48:13.267Z,59.38
2019-01-09T16:50:41.652Z,60.00
2019-01-09T16:53:10.041Z,60.08
2019-01-09T16:55:38.419Z,60.55
2019-01-09T16:58:07.162Z,60.52
2019-01-09T17:00:41.985Z,60.12
2019-01-09T17:03:10.783Z,60.42
2019-01-09T17:05:39.287Z,61.00
2019-01-09T17:08:11.187Z,61.49
2019-01-09T17:10:39.630Z,60.96
2019-01-09T17:13:08.395Z,61.18
2019-01-09T17:15:36.798Z,61.13
2019-01-09T17:18:06.538Z,61.52
2019-01-09T17:20:35.754Z,61.44
2019-01-09T17:23:05.798Z,61.70
2019-01-09T17:25:37.386Z,60.59
2019-01-09T17:28:06.979Z,60.89
2019-01-09T17:30:35.444Z,61.07
2019-01-09T17:33:04.667Z,61.84
2019-01-09T17:35:33.044Z,61.91
2019-01-09T17:38:01.428Z,62.02
2019-01-09T17:40:30.086Z,62.20
2019-01-09T17:42:58.578Z,62.94
2019-01-09T17:45:27.280Z,62.73
2019-01-09T17:47:55.659Z,61.94
2019-01-09T17:50:33.307Z,62.17
2019-01-09T17:53:02.718Z,62.94
2019-01-09T17:55:32.571Z,62.80
2019-01-09T17:58:03.341Z,62.48
2019-01-09T18:00:34.196Z,62.99
2019-01-09T18:03:02.773Z,62.49
2019-01-09T18:05:31.632Z,62.72
2019-01-09T18:08:10.124Z,63.47
2019-01-09T18:10:32.567Z,62.24
2019-01-09T18:13:01.014Z,63.08
2019-01-09T18:15:29.646Z,63.09
2019-01-09T18:17:58.023Z,63.05
2019-01-09T18:20:26.877Z,63.60
2019-01-09T18:22:55.575Z,63.18
2019-01-09T18:25:26.587Z,64.16
2019-01-09T18:27:55.227Z,64.18
2019-01-09T18:30:44.046Z,63.83
2019-01-09T18:33:18.779Z,63.61
2019-01-09T18:35:55.887Z,63.92
2019-01-09T18:38:42.573Z,64.15
2019-01-09T18:41:47.100Z,64.06
2019-01-09T18:44:29.971Z,64.24
2019-01-09T18:47:16.221Z,64.44
2019-01-09T18:49:56.787Z,64.48
2019-01-09T18:52:49.633Z,64.46
2019-01-09T18:55:18.086Z,64.59
2019-01-09T18:57:46.478Z,65.08
2019-01-09T19:00:18.559Z,65.30
2019-01-09T19:02:46.942Z,65.41
2019-01-09T19:05:16.285Z,65.58
2019-01-09T19:07:45.538Z,65.56
2019-01-09T19:10:17.629Z,64.64
2019-01-09T19:12:46.321Z,64.29
2019-01-09T19:15:16.170Z,63.85
2019-01-09T19:17:44.618Z,63.85
2019-01-09T19:20:15.587Z,63.58
2019-01-09T19:22:43.975Z,63.54
2019-01-09T19:25:15.613Z,63.10
2019-01-09T19:27:44.626Z,62.50
2019-01-09T19:30:21.943Z,62.61
2019-01-09T19:32:50.730Z,62.51
2019-01-09T19:35:19.247Z,62.32
2019-01-09T19:37:47.683Z,61.87
2019-01-09T19:40:17.154Z,61.60
2019-01-09T19:42:45.743Z,61.74
2019-01-09T19:45:15.370Z,62.26
2019-01-09T19:47:43.950Z,61.90
2019-01-09T19:50:21.265Z,61.99
2019-01-09T19:52:50.807Z,62.30
2019-01-09T19:55:19.836Z,62.64
2019-01-09T19:57:49.016Z,62.81
2019-01-09T20:00:24.037Z,62.56
2019-01-09T20:02:52.754Z,62.49
2019-01-09T20:05:22.031Z,62.92
2019-01-09T20:07:51.213Z,62.92
2019-01-09T20:10:22.433Z,62.94
2019-01-09T20:12:51.046Z,62.33
2019-01-09T20:15:20.608Z,62.58
2019-01-09T20:17:50.012Z,62.28
2019-01-09T20:20:20.433Z,62.51
2019-01-09T20:22:50.262Z,62.82
2019-01-09T20:25:19.562Z,63.08
2019-01-09T20:27:48.122Z,63.19
2019-01-09T20:30:25.193Z,63.47
2019-01-09T20:32:53.961Z,63.40
2019-01-09T20:35:22.478Z,63.47
2019-01-09T20:37:51.597Z,63.72
2019-01-09T20:40:20.045Z,63.16
2019-01-09T20:42:48.794Z,63.23
2019-01-09T20:45:19.243Z,63.11
2019-01-09T20:47:48.467Z,62.85
2019-01-09T20:50:20.735Z,62.99
2019-01-09T20:52:49.161Z,63.00
2019-01-09T20:55:18.427Z,62.75
2019-01-09T20:57:48.190Z,62.90
2019-01-09T21:00:22.881Z,62.97
2019-01-09T21:02:51.879Z,62.87
2019-01-09T21:05:26.622Z,63.05
2019-01-09T21:07:55.174Z,62.97
2019-01-09T21:10:23.874Z,62.83
2019-01-09T21:12:52.367Z,63.06
2019-01-09T21:15:22.798Z,62.57
2019-01-09T21:17:51.380Z,63.41
2019-01-09T21:20:22.606Z,62.82
2019-01-09T21:22:51.753Z,62.76
2019-01-09T21:25:21.806Z,62.58
2019-01-09T21:27:50.447Z,62.73
2019-01-09T21:30:24.081Z,62.64
2019-01-09T21:32:53.012Z,62.05
2019-01-09T21:35:21.467Z,62.51
2019-01-09T21:37:50.093Z,62.56
2019-01-09T21:40:21.453Z,63.16
2019-01-09T21:42:50.231Z,63.83
2019-01-09T21:45:19.321Z,63.54
2019-01-09T21:47:47.704Z,63.91
2019-01-09T21:50:19.125Z,63.97
2019-01-09T21:52:47.959Z,63.35
2019-01-09T21:55:17.739Z,63.45
2019-01-09T21:57:46.124Z,63.61
2019-01-09T22:00:23.028Z,63.70
2019-01-09T22:02:51.656Z,63.93
2019-01-09T22:05:21.585Z,63.76
2019-01-09T22:07:50.323Z,63.12
2019-01-09T22:10:22.761Z,63.71
2019-01-09T22:12:52.438Z,63.54
2019-01-09T22:15:21.270Z,63.67
2019-01-09T22:17:50.322Z,63.35
2019-01-09T22:20:19.904Z,63.38
2019-01-09T22:22:48.728Z,62.92
2019-01-09T22:25:17.341Z,62.82
2019-01-09T22:27:46.453Z,63.17
2019-01-09T22:30:20.629Z,62.85
2019-01-09T22:32:49.567Z,63.16
2019-01-09T22:35:18.625Z,63.33
2019-01-09T22:37:47.840Z,63.05
2019-01-09T22:40:20.891Z,63.43
2019-01-09T22:42:49.805Z,63.22
2019-01-09T22:45:18.803Z,63.26
2019-01-09T22:47:47.220Z,63.04
2019-01-09T22:50:21.502Z,63.25
2019-01-09T22:52:50.495Z,63.08
2019-01-09T22:55:19.204Z,63.67
2019-01-09T22:57:48.063Z,63.81
2019-01-09T23:00:25.918Z,64.05
2019-01-09T23:02:55.030Z,64.47
2019-01-09T23:05:23.417Z,64.56
2019-01-09T23:07:53.650Z,64.49
2019-01-09T23:10:21.966Z,64.14
2019-01-09T23:12:50.415Z,63.90
2019-01-09T23:15:19.314Z,64.74
2019-01-09T23:17:48.082Z,64.98
2019-01-09T23:20:17.112Z,64.90
2019-01-09T23:22:45.642Z,65.12
2019-01-09T23:25:14.444Z,65.16
2019-01-09T23:27:43.571Z,65.31
2019-01-09T23:30:14.694Z,64.81
2019-01-09T23:32:43.321Z,64.85
2019-01-09T23:35:13.250Z,64.93
2019-01-09T23:37:41.870Z,65.26
2019-01-09T23:40:13.136Z,64.94
2019-01-09T23:42:41.826Z,65.41
2019-01-09T23:45:12.341Z,65.64
2019-01-09T23:47:40.741Z,65.56
2019-01-09T23:50:11.362Z,65.31
2019-01-09T23:52:40.460Z,65.28
2019-01-09T23:55:14.243Z,64.81
2019-01-09T23:57:42.622Z,64.90
